Time;durP1;ratioP1;P1;durP2;ratioP2;P2;SDS_P1;SDS_P2;PMS_P1;PMS_P2;Temp;Humidity;BMP_temperature;BMP_pressure;BME280_temperature;BME280_humidity;BME280_pressure;Samples;Min_cycle;Max_cycle;Signal;HPM_P1;HPM_P2
2021/09/18 00:00:11;;;;;;;40.75;21.77;;;;;;;14.54;100.00;101760.00;5016904;28;20045;-69
2021/09/18 00:02:39;;;;;;;38.35;19.58;;;;;;;14.54;100.00;101751.06;5012218;28;20051;-69
2021/09/18 00:05:09;;;;;;;40.45;22.05;;;;;;;14.52;100.00;101743.09;5015073;28;20061;-69
2021/09/18 00:07:37;;;;;;;43.10;23.00;;;;;;;14.50;100.00;101752.97;5014773;28;20713;-69
2021/09/18 00:10:06;;;;;;;37.10;19.25;;;;;;;14.48;100.00;101745.91;5013450;28;20060;-69
2021/09/18 00:12:35;;;;;;;42.53;22.98;;;;;;;14.50;100.00;101750.28;5016421;28;20057;-70
2021/09/18 00:15:05;;;;;;;36.55;21.60;;;;;;;14.51;100.00;101752.06;5012942;28;20337;-69
2021/09/18 00:17:33;;;;;;;39.35;21.23;;;;;;;14.52;100.00;101747.56;5017862;28;20364;-68
2021/09/18 00:20:01;;;;;;;41.58;22.38;;;;;;;14.53;100.00;101741.25;5012636;28;20057;-70
2021/09/18 00:22:29;;;;;;;44.38;22.27;;;;;;;14.52;100.00;101740.41;5014995;28;20053;-69
2021/09/18 00:24:57;;;;;;;43.65;23.23;;;;;;;14.53;100.00;101749.31;5016386;28;20115;-69
2021/09/18 00:27:24;;;;;;;43.90;22.35;;;;;;;14.55;100.00;101742.94;5011978;28;20089;-69
2021/09/18 00:29:54;;;;;;;45.08;22.08;;;;;;;14.54;100.00;101748.38;5016392;28;20061;-69
2021/09/18 00:32:21;;;;;;;39.72;22.23;;;;;;;14.52;100.00;101752.91;5007205;28;20132;-69
2021/09/18 00:34:49;;;;;;;42.75;22.98;;;;;;;14.52;100.00;101744.88;5013607;28;20282;-70
2021/09/18 00:37:17;;;;;;;40.88;21.95;;;;;;;14.51;100.00;101745.81;5012355;28;20200;-70
2021/09/18 00:39:45;;;;;;;46.05;22.52;;;;;;;14.49;100.00;101742.28;5011385;28;20057;-69
2021/09/18 00:42:12;;;;;;;47.38;24.40;;;;;;;14.48;100.00;101744.09;5015710;28;20180;-69
2021/09/18 00:44:40;;;;;;;43.97;23.83;;;;;;;14.48;100.00;101743.22;5010986;28;20056;-70
2021/09/18 00:47:09;;;;;;;44.47;24.63;;;;;;;14.48;100.00;101748.59;5015162;28;20606;-70
2021/09/18 00:49:37;;;;;;;46.88;23.60;;;;;;;14.45;100.00;101740.66;5013045;28;20100;-70
2021/09/18 00:52:05;;;;;;;42.97;23.10;;;;;;;14.43;100.00;101746.06;5013033;28;20057;-71
2021/09/18 00:54:33;;;;;;;41.08;23.65;;;;;;;14.44;100.00;101741.56;5017858;28;20045;-70
2021/09/18 00:57:01;;;;;;;47.67;23.70;;;;;;;14.43;100.00;101739.81;5016600;28;20053;-70
2021/09/18 00:59:30;;;;;;;48.15;24.95;;;;;;;14.45;100.00;101746.00;5019504;28;20157;-70
2021/09/18 01:01:58;;;;;;;49.75;23.83;;;;;;;14.40;100.00;101743.47;5018218;28;20079;-71
2021/09/18 01:04:27;;;;;;;54.72;25.73;;;;;;;14.41;100.00;101750.63;5015670;28;20482;-70
2021/09/18 01:06:55;;;;;;;51.65;25.88;;;;;;;14.42;100.00;101743.44;5018873;28;20092;-67
2021/09/18 01:09:23;;;;;;;54.75;27.35;;;;;;;14.42;100.00;101752.38;5015956;28;20057;-67
2021/09/18 01:11:52;;;;;;;52.95;23.85;;;;;;;14.42;100.00;101746.09;5019079;28;20061;-67
2021/09/18 01:14:20;;;;;;;54.22;27.02;;;;;;;14.45;100.00;101751.38;5018091;28;20131;-67
2021/09/18 01:16:48;;;;;;;51.25;25.85;;;;;;;14.47;100.00;101749.50;5016333;28;20131;-65
2021/09/18 01:19:16;;;;;;;57.45;25.67;;;;;;;14.50;100.00;101746.72;5015139;28;20084;-65
2021/09/18 01:21:48;;;;;;;49.55;25.42;;;;;;;14.50;100.00;101750.28;5016196;28;20045;-65
2021/09/18 01:24:18;;;;;;;55.22;27.00;;;;;;;14.51;100.00;101746.69;5018919;28;20453;-66
2021/09/18 01:26:47;;;;;;;55.65;28.50;;;;;;;14.52;100.00;101742.19;5016876;28;20610;-65
2021/09/18 01:29:15;;;;;;;54.25;27.80;;;;;;;14.52;100.00;101744.88;5016534;28;20452;-69
2021/09/18 01:31:45;;;;;;;50.83;24.63;;;;;;;14.53;100.00;101738.56;5017466;28;20107;-68
2021/09/18 01:34:18;;;;;;;55.05;29.33;;;;;;;14.56;100.00;101738.47;5015522;28;20049;-69
2021/09/18 01:36:47;;;;;;;55.50;28.88;;;;;;;14.55;100.00;101736.72;5018095;28;20056;-69
2021/09/18 01:39:21;;;;;;;58.47;28.42;;;;;;;14.55;100.00;101729.53;5016562;28;20132;-69
2021/09/18 01:41:50;;;;;;;59.17;28.80;;;;;;;14.51;100.00;101733.25;5018104;28;20072;-69
2021/09/18 01:44:19;;;;;;;59.95;29.73;;;;;;;14.50;100.00;101736.00;5016718;28;20069;-69
2021/09/18 01:46:47;;;;;;;61.95;30.25;;;;;;;14.48;100.00;101738.72;5015422;28;20045;-69
2021/09/18 01:49:16;;;;;;;55.53;29.50;;;;;;;14.45;100.00;101735.28;5016577;28;20057;-65
2021/09/18 01:51:54;;;;;;;65.40;29.70;;;;;;;14.46;100.00;101734.34;5014867;28;20081;-65
2021/09/18 01:54:24;;;;;;;53.78;28.90;;;;;;;14.42;100.00;101722.84;5016224;28;20490;-65
2021/09/18 01:56:52;;;;;;;54.58;29.30;;;;;;;14.40;100.00;101730.03;5016014;28;20053;-65
2021/09/18 01:59:20;;;;;;;57.30;28.33;;;;;;;14.37;100.00;101727.50;5015394;28;20064;-65
2021/09/18 02:01:47;;;;;;;59.00;29.83;;;;;;;14.34;100.00;101725.78;5013857;28;20168;-65
2021/09/18 02:04:15;;;;;;;59.17;29.02;;;;;;;14.32;100.00;101726.75;5014159;28;20103;-65
2021/09/18 02:06:43;;;;;;;60.05;31.13;;;;;;;14.27;100.00;101723.34;5017062;28;20092;-65
2021/09/18 02:09:11;;;;;;;56.10;27.05;;;;;;;14.24;100.00;101718.97;5014711;28;20053;-65
2021/09/18 02:11:40;;;;;;;56.17;28.48;;;;;;;14.21;100.00;101729.78;5015235;28;20057;-65
2021/09/18 02:14:08;;;;;;;55.30;30.08;;;;;;;14.18;100.00;101730.78;5015497;28;20754;-65
2021/09/18 02:16:36;;;;;;;63.28;32.15;;;;;;;14.14;100.00;101726.44;5014193;28;20073;-65
2021/09/18 02:19:03;;;;;;;60.25;29.73;;;;;;;14.13;100.00;101727.38;5015064;28;20050;-65
2021/09/18 02:21:31;;;;;;;55.03;28.00;;;;;;;14.09;100.00;101725.72;5015225;28;20049;-65
2021/09/18 02:23:59;;;;;;;52.53;25.92;;;;;;;14.03;100.00;101731.28;5014408;28;20080;-65
2021/09/18 02:26:27;;;;;;;51.72;27.77;;;;;;;13.99;100.00;101722.44;5014719;28;20060;-65
2021/09/18 02:28:56;;;;;;;60.40;28.30;;;;;;;13.97;100.00;101721.63;5014228;28;20132;-65
2021/09/18 02:31:24;;;;;;;56.88;29.27;;;;;;;13.95;100.00;101727.97;5015843;28;20049;-65
2021/09/18 02:33:52;;;;;;;58.17;29.08;;;;;;;13.92;100.00;101720.00;5014963;28;20080;-65
2021/09/18 02:36:20;;;;;;;55.78;29.95;;;;;;;13.89;100.00;101718.28;5014359;28;20942;-65
2021/09/18 02:38:47;;;;;;;56.10;27.58;;;;;;;13.85;100.00;101716.66;5013824;28;20243;-69
2021/09/18 02:41:15;;;;;;;58.95;28.30;;;;;;;13.83;100.00;101713.16;5014645;28;20498;-69
2021/09/18 02:43:43;;;;;;;56.60;28.08;;;;;;;13.82;100.00;101714.97;5015355;28;20099;-69
2021/09/18 02:46:13;;;;;;;59.70;29.75;;;;;;;13.77;100.00;101716.00;4976470;28;1145550;-69
2021/09/18 02:48:42;;;;;;;55.97;27.73;;;;;;;13.75;100.00;101710.69;5019127;28;20050;-69
2021/09/18 02:51:23;;;;;;;63.67;29.13;;;;;;;13.73;100.00;101700.94;5015695;28;20056;-69
2021/09/18 02:53:53;;;;;;;62.80;30.05;;;;;;;13.69;100.00;101700.19;5015402;28;20045;-65
2021/09/18 02:56:21;;;;;;;59.17;28.88;;;;;;;13.68;100.00;101695.72;5015809;28;20060;-65
2021/09/18 02:58:49;;;;;;;57.40;26.92;;;;;;;13.68;100.00;101698.41;5015567;28;20057;-65
2021/09/18 03:01:18;;;;;;;69.90;32.10;;;;;;;13.64;100.00;101694.94;5015037;28;20050;-65
2021/09/18 03:03:47;;;;;;;60.35;29.90;;;;;;;13.58;100.00;101695.13;5016343;28;20050;-65
2021/09/18 03:06:15;;;;;;;67.15;31.60;;;;;;;13.58;100.00;101696.94;5016720;28;20056;-65
2021/09/18 03:08:43;;;;;;;70.88;31.33;;;;;;;13.55;100.00;101695.25;5013526;28;20406;-65
2021/09/18 03:11:11;;;;;;;69.40;31.83;;;;;;;13.55;100.00;101697.94;5016561;28;20089;-65
2021/09/18 03:13:39;;;;;;;71.00;31.95;;;;;;;13.54;100.00;101701.53;5016370;28;20049;-65
2021/09/18 03:16:12;;;;;;;68.50;31.88;;;;;;;13.52;100.00;101698.00;5014845;28;21417;-66
2021/09/18 03:18:42;;;;;;;68.43;31.05;;;;;;;13.53;100.00;101707.78;5017423;28;20521;-70
2021/09/18 03:21:10;;;;;;;66.55;30.85;;;;;;;13.49;100.00;101699.91;5012251;28;20046;-70
2021/09/18 03:23:38;;;;;;;65.28;30.23;;;;;;;13.50;100.00;101693.59;5016310;28;20122;-69
2021/09/18 03:26:06;;;;;;;73.07;33.88;;;;;;;13.49;100.00;101698.09;5018843;28;20598;-69
2021/09/18 03:28:34;;;;;;;71.85;32.60;;;;;;;13.48;100.00;101701.69;5015392;28;20077;-69
2021/09/18 03:31:02;;;;;;;72.35;32.88;;;;;;;13.44;100.00;101698.22;5016744;28;20299;-69
2021/09/18 03:33:30;;;;;;;72.60;32.25;;;;;;;13.42;100.00;101697.41;5012435;28;20892;-69
2021/09/18 03:35:59;;;;;;;69.22;33.28;;;;;;;13.40;100.00;101695.69;5014508;28;20057;-69
2021/09/18 03:38:27;;;;;;;66.95;31.38;;;;;;;13.39;100.00;101692.13;5014600;28;20171;-69
2021/09/18 03:40:55;;;;;;;77.35;34.80;;;;;;;13.39;100.00;101694.81;5013830;28;20059;-69
2021/09/18 03:43:23;;;;;;;70.55;30.90;;;;;;;13.37;100.00;101699.34;5016060;28;20061;-69
2021/09/18 03:45:52;;;;;;;71.78;33.80;;;;;;;13.40;100.00;101701.94;5015646;28;20120;-69
2021/09/18 03:48:20;;;;;;;70.45;31.65;;;;;;;13.39;100.00;101699.31;5015803;28;20060;-69
2021/09/18 03:50:48;;;;;;;74.38;33.78;;;;;;;13.41;100.00;101701.00;5014212;28;20049;-69
2021/09/18 03:53:17;;;;;;;71.30;30.42;;;;;;;13.40;100.00;101709.09;5016199;28;20053;-69
2021/09/18 03:55:45;;;;;;;67.60;31.27;;;;;;;13.39;100.00;101707.34;5014622;28;20429;-69
2021/09/18 03:58:13;;;;;;;79.28;34.90;;;;;;;13.33;100.00;101705.75;5015949;28;20057;-69
2021/09/18 04:00:41;;;;;;;75.68;32.13;;;;;;;13.33;100.00;101710.19;5014763;28;20053;-69
2021/09/18 04:03:09;;;;;;;76.88;34.65;;;;;;;13.32;100.00;101712.00;5012934;28;20141;-66
2021/09/18 04:05:38;;;;;;;72.10;31.45;;;;;;;13.34;100.00;101715.53;5015270;28;20398;-66
2021/09/18 04:08:07;;;;;;;74.25;32.13;;;;;;;13.34;100.00;101720.88;5014194;28;20405;-66
2021/09/18 04:10:37;;;;;;;73.60;32.55;;;;;;;13.34;100.00;101714.66;5014922;28;20107;-66
2021/09/18 04:13:06;;;;;;;69.88;31.75;;;;;;;13.39;100.00;101724.31;5018265;28;20136;-66
2021/09/18 04:15:35;;;;;;;66.22;29.55;;;;;;;13.40;100.00;101719.81;5014791;28;20053;-66
2021/09/18 04:18:03;;;;;;;74.95;33.28;;;;;;;13.41;100.00;101727.81;5015304;28;20548;-66
2021/09/18 04:20:31;;;;;;;71.72;33.70;;;;;;;13.42;100.00;101723.34;5014505;28;20070;-66
2021/09/18 04:22:58;;;;;;;73.07;32.17;;;;;;;13.44;100.00;101722.34;5014949;28;20100;-66
2021/09/18 04:25:27;;;;;;;66.50;30.58;;;;;;;13.43;100.00;101728.66;5013955;28;20048;-69
2021/09/18 04:27:56;;;;;;;66.55;31.60;;;;;;;13.43;100.00;101720.63;5016254;28;20110;-69
2021/09/18 04:30:24;;;;;;;66.22;30.67;;;;;;;13.42;100.00;101724.22;5014822;28;20053;-70
2021/09/18 04:32:55;;;;;;;72.75;33.40;;;;;;;13.42;100.00;101718.84;5014994;28;20049;-69
2021/09/18 04:35:23;;;;;;;76.15;34.67;;;;;;;13.42;100.00;101716.19;5013873;28;20049;-70
2021/09/18 04:37:51;;;;;;;69.45;33.67;;;;;;;13.38;100.00;101725.25;5014809;28;20065;-70
2021/09/18 04:40:19;;;;;;;72.65;32.65;;;;;;;13.37;100.00;101723.47;5011970;28;20499;-66
2021/09/18 04:42:47;;;;;;;71.32;32.72;;;;;;;13.37;100.00;101720.78;5015429;28;20061;-66
2021/09/18 04:45:19;;;;;;;74.78;35.33;;;;;;;13.33;100.00;101719.16;5013099;28;20561;-66
2021/09/18 04:47:47;;;;;;;72.40;32.53;;;;;;;13.29;100.00;101727.28;5013428;28;20081;-66
2021/09/18 04:50:15;;;;;;;70.65;31.70;;;;;;;13.27;100.00;101725.50;5013842;28;20542;-70
2021/09/18 04:52:43;;;;;;;66.82;32.65;;;;;;;13.26;100.00;101729.13;5010992;28;20088;-68
2021/09/18 04:55:11;;;;;;;76.47;33.63;;;;;;;13.27;100.00;101740.72;5014978;28;20048;-65
2021/09/18 04:57:39;;;;;;;81.90;35.63;;;;;;;13.24;100.00;101733.63;5011862;28;20399;-69
2021/09/18 05:00:08;;;;;;;71.75;33.47;;;;;;;13.25;100.00;101739.91;5014041;28;20129;-69
2021/09/18 05:02:37;;;;;;;79.22;34.50;;;;;;;13.24;100.00;101730.94;5014958;28;20060;-69
2021/09/18 05:05:07;;;;;;;75.55;33.22;;;;;;;13.26;100.00;101738.94;5013556;28;20045;-69
2021/09/18 05:07:36;;;;;;;74.35;32.53;;;;;;;13.29;100.00;101738.00;5013388;28;20052;-69
2021/09/18 05:10:05;;;;;;;73.80;33.13;;;;;;;13.31;100.00;101734.34;5013207;28;20148;-69
2021/09/18 05:12:33;;;;;;;78.80;33.13;;;;;;;13.32;100.00;101741.50;5014401;28;20057;-68
2021/09/18 05:15:01;;;;;;;69.88;33.00;;;;;;;13.34;100.00;101736.09;5013090;28;20084;-69
2021/09/18 05:17:29;;;;;;;73.32;33.67;;;;;;;13.37;100.00;101742.25;5013497;28;20064;-69
2021/09/18 05:19:59;;;;;;;69.72;32.55;;;;;;;13.37;100.00;101744.91;5015452;28;20052;-69
2021/09/18 05:22:27;;;;;;;74.53;34.10;;;;;;;13.39;100.00;101755.59;5013634;28;20119;-69
2021/09/18 05:24:55;;;;;;;74.82;33.28;;;;;;;13.42;100.00;101756.38;5012819;28;20103;-69
2021/09/18 05:27:23;;;;;;;78.60;33.83;;;;;;;13.45;100.00;101755.44;5011042;28;20049;-69
2021/09/18 05:29:50;;;;;;;74.32;33.42;;;;;;;13.46;100.00;101754.50;5015405;28;20438;-69
2021/09/18 05:32:18;;;;;;;71.68;31.60;;;;;;;13.50;100.00;101757.94;5015239;28;20053;-69
2021/09/18 05:34:46;;;;;;;73.47;33.20;;;;;;;13.51;100.00;101762.41;5013983;28;20104;-68
2021/09/18 05:37:15;;;;;;;68.20;31.85;;;;;;;13.52;100.00;101761.47;5014256;28;20053;-66
2021/09/18 05:39:43;;;;;;;80.93;34.63;;;;;;;13.57;100.00;101763.09;5014830;28;20118;-65
2021/09/18 05:42:10;;;;;;;75.57;33.83;;;;;;;13.61;100.00;101763.88;5016908;28;20160;-65
2021/09/18 05:44:39;;;;;;;71.25;30.63;;;;;;;13.64;100.00;101758.44;5016058;28;20065;-69
2021/09/18 05:47:07;;;;;;;72.65;34.53;;;;;;;13.73;100.00;101757.28;5016180;28;21521;-71
2021/09/18 05:49:38;;;;;;;85.25;36.33;;;;;;;13.78;100.00;101766.06;5017327;28;20045;-72
2021/09/18 05:52:06;;;;;;;77.82;34.78;;;;;;;13.82;100.00;101765.94;5014674;28;20584;-69
2021/09/18 05:54:38;;;;;;;75.88;32.45;;;;;;;13.87;100.00;101772.94;5017924;28;20045;-71
2021/09/18 05:57:10;;;;;;;86.82;37.35;;;;;;;13.89;100.00;101765.72;5015920;28;20041;-70
2021/09/18 05:59:38;;;;;;;74.82;33.47;;;;;;;13.92;100.00;101769.19;5020120;28;20559;-66
2021/09/18 06:02:07;;;;;;;69.70;32.67;;;;;;;13.95;100.00;101765.53;5017297;28;20501;-68
2021/09/18 06:04:35;;;;;;;73.13;33.20;;;;;;;14.00;100.00;101769.81;5017309;28;20053;-70
2021/09/18 06:07:04;;;;;;;73.28;33.15;;;;;;;14.05;100.00;101772.38;5017948;28;20049;-70
2021/09/18 06:09:32;;;;;;;79.50;35.47;;;;;;;14.09;100.00;101776.69;5016102;28;20458;-69
2021/09/18 06:12:05;;;;;;;80.65;33.67;;;;;;;14.14;100.00;101777.44;5016795;28;20065;-70
2021/09/18 06:14:33;;;;;;;85.40;35.35;;;;;;;14.18;100.00;101770.16;5014229;28;20053;-71
2021/09/18 06:17:01;;;;;;;77.15;34.45;;;;;;;14.23;100.00;101775.38;5016614;28;20054;-71
2021/09/18 06:19:31;;;;;;;86.70;34.53;;;;;;;14.30;100.00;101779.59;5019207;28;20061;-71
2021/09/18 06:22:00;;;;;;;71.63;31.52;;;;;;;14.34;100.00;101779.47;5014822;28;20674;-70
2021/09/18 06:24:28;;;;;;;87.10;38.25;;;;;;;14.38;100.00;101780.25;5018257;28;20160;-69
2021/09/18 06:26:56;;;;;;;92.57;37.13;;;;;;;14.45;100.00;101783.59;5013743;28;20045;-71
2021/09/18 06:29:26;;;;;;;79.15;34.03;;;;;;;14.49;100.00;101778.09;5016947;28;20401;-70
2021/09/18 06:31:55;;;;;;;81.15;35.03;;;;;;;14.54;100.00;101780.59;5018332;28;20049;-72
2021/09/18 06:34:25;;;;;;;77.07;34.38;;;;;;;14.61;100.00;101784.00;5015926;28;20258;-70
2021/09/18 06:36:54;;;;;;;71.97;31.90;;;;;;;14.67;100.00;101789.16;5019408;28;20293;-70
2021/09/18 06:39:22;;;;;;;70.97;34.35;;;;;;;14.69;100.00;101785.50;5014702;28;20056;-71
2021/09/18 06:41:50;;;;;;;74.70;31.75;;;;;;;14.73;100.00;101787.16;5018337;28;20050;-70
2021/09/18 06:44:21;;;;;;;68.28;31.83;;;;;;;14.82;100.00;101787.75;5017827;28;20060;-70
2021/09/18 06:46:50;;;;;;;75.97;34.55;;;;;;;14.86;100.00;101790.28;5017483;28;20053;-69
2021/09/18 06:49:21;;;;;;;66.88;31.52;;;;;;;14.93;100.00;101788.25;5020060;28;20057;-70
2021/09/18 06:51:49;;;;;;;135.00;38.13;;;;;;;15.03;100.00;101787.00;5012698;28;20057;-69
2021/09/18 06:54:20;;;;;;;151.75;41.35;;;;;;;15.07;100.00;101790.47;5020229;28;20053;-70
2021/09/18 06:56:49;;;;;;;71.30;33.42;;;;;;;15.11;100.00;101792.97;5014459;28;20057;-71
2021/09/18 06:59:17;;;;;;;74.43;31.00;;;;;;;15.21;100.00;101787.28;5016194;28;20575;-72
2021/09/18 07:01:47;;;;;;;68.40;31.52;;;;;;;15.28;100.00;101796.88;5019250;28;20046;-69
2021/09/18 07:04:17;;;;;;;71.22;32.50;;;;;;;15.37;100.00;101792.97;5014085;28;20061;-71
2021/09/18 07:06:45;;;;;;;71.57;32.80;;;;;;;15.42;100.00;101799.91;5015882;28;20041;-69
2021/09/18 07:09:18;;;;;;;72.45;33.38;;;;;;;15.48;100.00;101801.53;5014655;28;20349;-72
2021/09/18 07:11:47;;;;;;;66.15;32.85;;;;;;;15.62;100.00;101803.69;5015460;28;20049;-70
2021/09/18 07:14:15;;;;;;;77.07;34.97;;;;;;;15.66;100.00;101806.22;5018196;28;20111;-71
2021/09/18 07:16:46;;;;;;;69.28;33.83;;;;;;;15.77;100.00;101803.13;5014167;28;20068;-70
2021/09/18 07:19:14;;;;;;;65.88;32.83;;;;;;;15.86;100.00;101808.13;5018119;28;20066;-69
2021/09/18 07:21:43;;;;;;;65.93;31.38;;;;;;;16.03;100.00;101803.91;5015370;28;20119;-70
2021/09/18 07:24:11;;;;;;;69.07;34.08;;;;;;;16.15;100.00;101802.56;5017168;28;20057;-70
2021/09/18 07:26:39;;;;;;;62.05;30.25;;;;;;;16.34;100.00;101798.16;5017834;28;20053;-70
2021/09/18 07:29:07;;;;;;;76.93;33.38;;;;;;;16.61;98.41;101795.28;5012936;28;20079;-70
2021/09/18 07:31:35;;;;;;;63.10;29.42;;;;;;;16.93;98.00;101795.75;5019048;28;20056;-70
2021/09/18 07:34:03;;;;;;;62.45;30.40;;;;;;;17.10;96.20;101795.88;5014087;28;20573;-70
2021/09/18 07:36:31;;;;;;;63.13;29.67;;;;;;;17.27;94.95;101799.66;5016160;28;20390;-69
2021/09/18 07:39:00;;;;;;;56.92;30.13;;;;;;;17.42;94.49;101788.16;5017909;28;20065;-72
2021/09/18 07:41:28;;;;;;;65.05;30.40;;;;;;;17.50;93.84;101791.38;5014645;28;20111;-71
2021/09/18 07:44:00;;;;;;;62.42;29.58;;;;;;;17.60;93.03;101799.03;5014917;28;20516;-66
2021/09/18 07:46:28;;;;;;;65.13;29.88;;;;;;;17.77;92.13;101800.97;5009343;28;20052;-66
2021/09/18 07:48:58;;;;;;;59.05;28.98;;;;;;;17.63;91.40;101801.59;5013159;28;20045;-66
2021/09/18 07:51:27;;;;;;;61.47;31.02;;;;;;;17.72;91.55;101802.06;5011568;28;20045;-67
2021/09/18 07:53:54;;;;;;;56.83;30.98;;;;;;;18.05;91.01;101803.25;5016505;28;20052;-66
2021/09/18 07:56:24;;;;;;;64.78;33.38;;;;;;;18.31;89.72;101806.50;5017709;28;20091;-66
2021/09/18 07:58:54;;;;;;;60.35;29.05;;;;;;;18.32;88.54;101806.44;5013172;28;20061;-66
2021/09/18 08:01:23;;;;;;;55.92;29.85;;;;;;;18.05;87.68;101805.97;5015689;28;20440;-66
2021/09/18 08:03:51;;;;;;;59.35;29.60;;;;;;;18.07;89.30;101807.63;5015362;28;20076;-66
2021/09/18 08:06:19;;;;;;;55.65;29.15;;;;;;;18.09;89.15;101810.25;5014786;28;20057;-66
2021/09/18 08:08:47;;;;;;;58.45;31.50;;;;;;;17.98;89.19;101813.47;5014193;28;20160;-66
2021/09/18 08:11:19;;;;;;;56.22;29.88;;;;;;;18.00;89.28;101808.88;5013338;28;20497;-66
2021/09/18 08:13:48;;;;;;;58.10;28.95;;;;;;;18.02;89.98;101815.06;5014520;28;20111;-67
2021/09/18 08:16:17;;;;;;;63.05;30.40;;;;;;;17.94;89.12;101817.25;5013175;28;20053;-66
2021/09/18 08:18:44;;;;;;;63.83;30.77;;;;;;;18.09;89.46;101811.13;5016534;28;20498;-66
2021/09/18 08:21:12;;;;;;;58.60;28.95;;;;;;;18.16;88.46;101808.13;5015443;28;20442;-66
2021/09/18 08:23:41;;;;;;;60.40;29.55;;;;;;;18.35;87.34;101816.22;5012295;28;20076;-70
2021/09/18 08:26:10;;;;;;;57.92;29.05;;;;;;;18.37;87.41;101814.28;5015208;28;20310;-69
2021/09/18 08:28:39;;;;;;;59.10;29.23;;;;;;;18.46;87.13;101811.16;5014145;28;20236;-69
2021/09/18 08:31:08;;;;;;;56.72;29.42;;;;;;;18.46;86.66;101809.31;5015013;28;20720;-69
2021/09/18 08:33:36;;;;;;;55.72;28.75;;;;;;;18.72;85.84;101811.66;5014289;28;20212;-69
2021/09/18 08:36:05;;;;;;;57.28;29.30;;;;;;;18.82;85.20;101812.94;5012432;28;20055;-69
2021/09/18 08:38:32;;;;;;;54.72;29.15;;;;;;;18.95;84.82;101805.97;5014634;28;20049;-70
2021/09/18 08:41:00;;;;;;;55.67;28.20;;;;;;;19.17;84.48;101815.66;5011525;28;20053;-69
2021/09/18 08:43:28;;;;;;;50.92;27.73;;;;;;;19.19;83.49;101817.34;5013323;28;20119;-69
2021/09/18 08:45:56;;;;;;;55.60;27.73;;;;;;;19.15;82.73;101814.88;5016695;28;20469;-69
2021/09/18 08:48:30;;;;;;;48.78;27.23;;;;;;;19.36;82.90;101823.69;5012994;28;20515;-65
2021/09/18 08:50:58;;;;;;;49.90;26.50;;;;;;;19.36;80.58;101816.44;5013968;28;20152;-66
2021/09/18 08:53:26;;;;;;;52.30;26.63;;;;;;;19.58;80.89;101815.25;5012587;28;20053;-65
2021/09/18 08:55:55;;;;;;;49.42;25.77;;;;;;;19.48;78.42;101814.91;5015721;28;20049;-65
2021/09/18 08:58:25;;;;;;;46.88;24.40;;;;;;;19.46;78.52;101811.41;5012961;28;20064;-65
2021/09/18 09:00:54;;;;;;;46.15;25.00;;;;;;;19.44;77.83;101820.56;5013958;28;20052;-65
2021/09/18 09:03:26;;;;;;;43.30;24.25;;;;;;;19.42;78.33;101818.78;5013372;28;20087;-70
2021/09/18 09:06:05;;;;;;;45.00;24.98;;;;;;;19.46;78.47;101822.25;5014369;28;20569;-68
2021/09/18 09:08:34;;;;;;;38.88;21.23;;;;;;;19.56;78.62;101822.59;5016113;28;20144;-68
2021/09/18 09:11:15;;;;;;;47.50;25.42;;;;;;;19.55;78.01;101810.91;5014148;28;20060;-69
2021/09/18 09:13:57;;;;;;;43.47;24.30;;;;;;;19.59;76.54;101820.59;5014388;28;20053;-69
2021/09/18 09:16:26;;;;;;;49.47;26.08;;;;;;;19.64;76.08;101817.63;5015751;28;20057;-69
2021/09/18 09:18:54;;;;;;;41.88;22.95;;;;;;;19.81;76.40;101816.75;5017844;28;20083;-69
2021/09/18 09:21:25;;;;;;;42.53;24.20;;;;;;;19.74;76.31;101815.31;5016827;28;20630;-69
2021/09/18 09:24:08;;;;;;;41.08;23.35;;;;;;;19.84;76.73;101819.28;5017471;28;20310;-69
2021/09/18 09:26:38;;;;;;;41.22;23.77;;;;;;;19.83;75.17;101822.06;5017113;28;20045;-70
2021/09/18 09:29:06;;;;;;;45.45;24.00;;;;;;;19.87;74.83;101819.13;5017020;28;20081;-70
2021/09/18 09:31:36;;;;;;;45.30;23.90;;;;;;;20.15;74.15;101813.00;5019039;28;20111;-71
2021/09/18 09:34:07;;;;;;;39.58;22.02;;;;;;;20.58;72.29;101811.47;5016671;28;20107;-70
2021/09/18 09:36:39;;;;;;;40.30;23.45;;;;;;;20.78;70.20;101813.03;5018907;28;20080;-70
2021/09/18 09:39:10;;;;;;;35.95;22.92;;;;;;;21.18;69.76;101816.94;5020222;28;20302;-70
2021/09/18 09:41:40;;;;;;;36.97;20.35;;;;;;;21.44;68.63;101823.44;5017669;28;20445;-70
2021/09/18 09:44:13;;;;;;;35.78;22.17;;;;;;;21.41;67.73;101822.78;5018220;28;20478;-72
2021/09/18 09:46:43;;;;;;;;;;;;;;;21.61;67.37;101829.72;5019760;28;20095;-71
2021/09/18 09:49:15;;;;;;;39.17;22.23;;;;;;;21.95;67.45;101825.69;5019336;28;20046;-68
2021/09/18 09:51:44;;;;;;;38.13;21.52;;;;;;;22.07;66.98;101824.03;5021565;28;20060;-68
2021/09/18 09:54:22;;;;;;;43.33;23.65;;;;;;;22.20;66.09;101824.09;5016388;28;20061;-72
2021/09/18 09:57:06;;;;;;;35.53;22.38;;;;;;;22.48;65.75;101822.31;5017546;28;20120;-71
2021/09/18 09:59:34;;;;;;;38.55;22.25;;;;;;;22.35;64.89;101819.53;5017330;28;20894;-71
2021/09/18 10:02:04;;;;;;;45.45;26.02;;;;;;;22.33;64.52;101829.63;5017618;28;20057;-72
2021/09/18 10:04:33;;;;;;;41.22;24.65;;;;;;;22.43;65.17;101825.31;5017071;28;20333;-71
2021/09/18 10:07:03;;;;;;;36.08;21.60;;;;;;;22.56;63.49;101833.53;5019464;28;20049;-72
2021/09/18 10:09:35;;;;;;;37.83;23.95;;;;;;;22.63;64.07;101820.38;5019452;28;20316;-71
2021/09/18 10:12:04;;;;;;;42.00;24.27;;;;;;;22.43;63.53;101825.31;5016081;28;20049;-71
2021/09/18 10:14:34;;;;;;;40.40;24.08;;;;;;;22.74;62.92;101821.41;5019215;28;20049;-71
2021/09/18 10:17:02;;;;;;;40.35;22.60;;;;;;;22.88;62.98;101816.88;5016496;28;20631;-72
2021/09/18 10:19:54;;;;;;;36.28;22.08;;;;;;;22.92;62.18;101823.84;5020110;28;20049;-72
2021/09/18 10:25:17;;;;;;;34.35;20.88;;;;;;;23.07;61.06;101814.66;5019883;28;20050;-71
2021/09/18 10:27:59;;;;;;;31.23;19.60;;;;;;;23.09;60.63;101820.88;5016655;28;20045;-69
2021/09/18 10:30:32;;;;;;;33.10;20.00;;;;;;;23.22;59.82;101815.41;5017418;28;20503;-68
2021/09/18 10:33:00;;;;;;;34.27;21.20;;;;;;;23.16;60.21;101825.91;5017244;28;20080;-68
2021/09/18 10:35:33;;;;;;;31.27;18.27;;;;;;;23.29;58.07;101824.03;5017535;28;20142;-68
2021/09/18 10:38:24;;;;;;;29.08;17.40;;;;;;;23.11;56.13;101820.75;5019048;28;20064;-68
2021/09/18 10:41:00;;;;;;;28.67;16.23;;;;;;;23.50;56.20;101813.47;5018857;28;20663;-72
2021/09/18 10:43:31;;;;;;;27.52;16.92;;;;;;;23.50;56.20;101813.47;5016194;28;20057;-72
2021/09/18 10:46:03;;;;;;;27.05;17.00;;;;;;;23.24;56.84;101810.75;5020364;28;20541;-73
2021/09/18 10:48:37;;;;;;;30.70;18.30;;;;;;;23.75;57.60;101806.25;5016430;28;20529;-71
2021/09/18 10:51:06;;;;;;;;;;;;;;;23.38;58.45;101808.88;5017777;28;20049;-72
2021/09/18 10:54:03;;;;;;;33.13;20.27;;;;;;;22.70;59.55;101809.00;5016173;28;20332;-72
2021/09/18 10:57:09;;;;;;;29.40;17.95;;;;;;;22.31;59.80;101807.13;5014533;28;20053;-73
2021/09/18 10:59:52;;;;;;;30.00;17.13;;;;;;;22.78;58.77;101804.88;5001497;28;20049;-73
2021/09/18 11:02:45;;;;;;;29.92;15.82;;;;;;;22.62;58.55;101797.75;5016503;28;20108;-73
2021/09/18 11:05:46;;;;;;;27.98;15.68;;;;;;;23.19;57.83;101806.59;5017447;28;20052;-72
2021/09/18 11:08:26;;;;;;;23.67;15.55;;;;;;;23.27;56.32;101802.34;5013568;28;20053;-73
2021/09/18 11:10:57;;;;;;;27.17;16.02;;;;;;;23.53;56.57;101790.59;5017734;28;20107;-73
2021/09/18 11:13:27;;;;;;;29.48;16.85;;;;;;;23.46;56.35;101804.66;5014131;28;20064;-73
2021/09/18 11:15:58;;;;;;;26.92;16.33;;;;;;;23.49;55.91;101804.41;5015771;28;20076;-73
2021/09/18 11:18:35;;;;;;;20.88;12.02;;;;;;;23.97;54.11;101797.41;5014919;28;20099;-73